createdAt,value
2022-09-06T00:01:23.451Z,100341.29
2022-09-06T00:03:50.895Z,100342.55
2022-09-06T00:06:19.579Z,100346.23
2022-09-06T00:08:46.971Z,100352.20
2022-09-06T00:11:13.826Z,100344.58
2022-09-06T00:13:40.549Z,100342.01
2022-09-06T00:16:12.884Z,100344.49
2022-09-06T00:18:39.775Z,100342.63
2022-09-06T00:21:13.065Z,100343.94
2022-09-06T00:23:39.811Z,100347.38
2022-09-06T00:26:06.591Z,100352.45
2022-09-06T00:28:33.241Z,100352.78
2022-09-06T00:31:08.409Z,100352.27
2022-09-06T00:33:35.303Z,100351.35
2022-09-06T00:36:02.061Z,100353.04
2022-09-06T00:38:28.842Z,100350.46
2022-09-06T00:40:55.555Z,100352.36
2022-09-06T00:43:22.439Z,100348.02
2022-09-06T00:45:49.261Z,100347.16
2022-09-06T00:48:15.986Z,100347.77
2022-09-06T00:50:43.350Z,100350.36
2022-09-06T00:53:10.132Z,100348.10
2022-09-06T00:55:36.873Z,100343.13
2022-09-06T00:58:03.800Z,100351.09
2022-09-06T01:00:30.617Z,100349.69
2022-09-06T01:02:57.295Z,100346.58
2022-09-06T01:05:25.369Z,100349.22
2022-09-06T01:08:15.563Z,100350.70
2022-09-06T01:10:50.273Z,100348.19
2022-09-06T01:13:23.847Z,100348.67
2022-09-06T01:16:35.168Z,100347.80
2022-09-06T01:19:17.940Z,100349.86
2022-09-06T01:21:47.850Z,100345.16
2022-09-06T01:24:30.984Z,100343.73
2022-09-06T01:27:42.459Z,100348.28
2022-09-06T01:30:10.222Z,100350.24
2022-09-06T01:32:39.842Z,100351.40
2022-09-06T01:35:28.983Z,100355.26
2022-09-06T01:37:56.264Z,100354.34
2022-09-06T01:40:23.100Z,100358.05
2022-09-06T01:42:49.805Z,100360.70
2022-09-06T01:45:25.618Z,100359.45
2022-09-06T01:48:29.544Z,100363.91
2022-09-06T01:50:59.210Z,100366.08
2022-09-06T01:53:59.763Z,100366.06
2022-09-06T01:56:39.588Z,100367.58
2022-09-06T01:59:31.025Z,100368.59
2022-09-06T02:02:15.224Z,100365.46
2022-09-06T02:05:17.153Z,100367.35
2022-09-06T02:07:44.000Z,100367.16
2022-09-06T02:10:24.187Z,100370.13
2022-09-06T02:12:53.534Z,100370.67
2022-09-06T02:15:25.705Z,100372.63
2022-09-06T02:18:17.011Z,100376.13
2022-09-06T02:20:48.246Z,100380.77
2022-09-06T02:23:15.001Z,100385.09
2022-09-06T02:25:43.883Z,100382.09
2022-09-06T02:28:10.641Z,100383.22
2022-09-06T02:30:42.876Z,100385.21
2022-09-06T02:33:13.770Z,100382.72
2022-09-06T02:35:51.562Z,100385.35
2022-09-06T02:38:18.639Z,100384.46
2022-09-06T02:40:45.789Z,100386.52
2022-09-06T02:43:12.670Z,100386.84
2022-09-06T02:45:39.472Z,100390.63
2022-09-06T02:48:06.316Z,100390.02
2022-09-06T02:50:32.955Z,100389.73
2022-09-06T02:53:02.445Z,100387.70
2022-09-06T02:55:29.186Z,100386.52
2022-09-06T02:57:55.933Z,100380.95
2022-09-06T03:00:22.719Z,100379.58
2022-09-06T03:02:49.510Z,100381.91
2022-09-06T03:05:16.226Z,100380.77
2022-09-06T03:07:43.018Z,100381.58
2022-09-06T03:10:09.971Z,100381.23
2022-09-06T03:12:36.718Z,100385.26
2022-09-06T03:15:04.026Z,100383.17
2022-09-06T03:17:31.292Z,100391.09
2022-09-06T03:19:58.029Z,100391.98
2022-09-06T03:22:24.782Z,100395.95
2022-09-06T03:24:51.515Z,100396.73
2022-09-06T03:27:18.218Z,100395.63
2022-09-06T03:29:44.975Z,100398.28
2022-09-06T03:32:11.781Z,100400.39
2022-09-06T03:34:38.432Z,100403.67
2022-09-06T03:37:05.198Z,100405.69
2022-09-06T03:39:31.924Z,100401.27
2022-09-06T03:41:58.667Z,100402.84
2022-09-06T03:44:25.415Z,100409.11
2022-09-06T03:46:52.725Z,100413.10
2022-09-06T03:49:19.496Z,100412.35
2022-09-06T03:51:46.167Z,100414.35
2022-09-06T03:55:06.293Z,100418.05
2022-09-06T03:57:34.271Z,100419.05
2022-09-06T04:00:01.081Z,100419.50
2022-09-06T04:02:38.261Z,100426.19
2022-09-06T04:05:06.435Z,100429.81
2022-09-06T04:07:33.555Z,100428.02
2022-09-06T04:10:00.314Z,100430.67
2022-09-06T04:12:27.016Z,100430.17
2022-09-06T04:14:53.777Z,100433.06
2022-09-06T04:17:20.543Z,100431.39
2022-09-06T04:19:47.195Z,100431.80
2022-09-06T04:22:13.949Z,100431.06
2022-09-06T04:24:40.690Z,100434.67
2022-09-06T04:27:07.360Z,100439.31
2022-09-06T04:29:34.126Z,100435.58
2022-09-06T04:32:00.897Z,100436.22
2022-09-06T04:34:27.843Z,100436.94
2022-09-06T04:36:54.547Z,100432.30
2022-09-06T04:39:21.374Z,100432.89
2022-09-06T04:41:47.998Z,100432.56
2022-09-06T04:44:14.768Z,100431.98
2022-09-06T04:46:41.616Z,100429.78
2022-09-06T04:49:08.443Z,100427.10
2022-09-06T04:51:35.264Z,100428.52
2022-09-06T04:56:46.461Z,100430.59
2022-09-06T04:59:13.207Z,100435.48
2022-09-06T05:01:39.920Z,100433.10
2022-09-06T05:04:06.652Z,100435.47
2022-09-06T05:06:33.555Z,100433.13
2022-09-06T05:09:00.503Z,100433.48
2022-09-06T05:11:27.731Z,100432.88
2022-09-06T05:13:54.489Z,100433.55
2022-09-06T05:16:21.248Z,100434.23
2022-09-06T05:18:48.140Z,100435.01
2022-09-06T05:21:15.022Z,100438.59
2022-09-06T05:23:42.478Z,100435.88
2022-09-06T05:26:09.379Z,100434.61
2022-09-06T05:28:36.342Z,100435.40
2022-09-06T05:31:08.165Z,100437.00
2022-09-06T05:33:35.031Z,100431.66
2022-09-06T05:36:02.325Z,100430.55
2022-09-06T05:38:29.805Z,100427.65
2022-09-06T05:40:56.669Z,100426.16
2022-09-06T05:43:23.430Z,100425.48
2022-09-06T05:45:50.540Z,100425.83
2022-09-06T05:48:17.398Z,100425.86
2022-09-06T05:50:44.124Z,100430.81
2022-09-06T05:53:11.018Z,100429.03
2022-09-06T05:55:42.307Z,100430.02
2022-09-06T05:58:09.822Z,100426.60
2022-09-06T06:00:36.640Z,100432.66
2022-09-06T06:03:03.379Z,100435.92
2022-09-06T06:05:32.324Z,100433.27
2022-09-06T06:07:59.747Z,100433.91
2022-09-06T06:10:26.600Z,100440.36
2022-09-06T06:12:53.293Z,100437.08
2022-09-06T06:15:20.105Z,100435.48
2022-09-06T06:17:46.835Z,100436.30
2022-09-06T06:20:13.715Z,100435.84
2022-09-06T06:22:40.472Z,100435.31
2022-09-06T06:25:07.484Z,100439.38
2022-09-06T06:27:35.393Z,100440.33
2022-09-06T06:30:02.186Z,100441.75
2022-09-06T06:32:28.917Z,100442.62
2022-09-06T06:34:55.673Z,100440.50
2022-09-06T06:37:22.417Z,100444.29
2022-09-06T06:39:49.516Z,100444.70
2022-09-06T06:42:16.541Z,100443.46
2022-09-06T06:44:49.579Z,100447.18
2022-09-06T06:47:16.276Z,100447.16
2022-09-06T06:49:43.049Z,100443.64
2022-09-06T06:52:09.814Z,100448.55
2022-09-06T06:54:37.533Z,100444.44
2022-09-06T06:57:04.635Z,100448.85
2022-09-06T06:59:31.508Z,100446.81
2022-09-06T07:01:58.814Z,100447.11
2022-09-06T07:04:25.698Z,100445.08
2022-09-06T07:12:27.170Z,100447.61
2022-09-06T07:14:54.051Z,100444.42
2022-09-06T07:17:20.835Z,100441.10
2022-09-06T07:22:34.286Z,100444.61
2022-09-06T07:25:00.991Z,100446.08
2022-09-06T07:30:14.576Z,100446.67
2022-09-06T07:32:41.234Z,100447.95
2022-09-06T07:35:08.564Z,100441.73
2022-09-06T07:37:35.496Z,100442.59
2022-09-06T07:40:03.527Z,100439.35
2022-09-06T07:42:35.675Z,100439.89
2022-09-06T07:45:04.806Z,100441.46
2022-09-06T07:53:11.222Z,100437.80
2022-09-06T07:55:41.931Z,100442.45
2022-09-06T07:58:08.694Z,100438.56
2022-09-06T08:00:35.580Z,100436.40
2022-09-06T08:03:02.402Z,100438.01
2022-09-06T08:11:02.766Z,100437.48
2022-09-06T08:13:29.688Z,100438.84
2022-09-06T08:16:07.110Z,100440.71
2022-09-06T08:18:34.966Z,100436.71
2022-09-06T08:21:12.820Z,100435.36
2022-09-06T08:23:42.827Z,100435.91
2022-09-06T08:26:09.642Z,100434.61
2022-09-06T08:28:36.298Z,100435.85
2022-09-06T08:31:10.719Z,100431.01
2022-09-06T08:33:38.169Z,100426.25
2022-09-06T08:36:05.713Z,100427.96
2022-09-06T08:38:32.683Z,100422.73
2022-09-06T08:41:12.916Z,100420.81
2022-09-06T08:43:40.149Z,100411.96
2022-09-06T08:46:07.636Z,100413.28
2022-09-06T08:48:37.045Z,100411.94
2022-09-06T08:51:42.900Z,100407.98
2022-09-06T08:54:18.747Z,100400.16
2022-09-06T08:57:03.698Z,100402.83
2022-09-06T08:59:35.978Z,100403.48
2022-09-06T09:02:13.351Z,100397.73
2022-09-06T09:04:57.020Z,100389.47
2022-09-06T09:07:52.401Z,100386.82
2022-09-06T09:10:22.774Z,100390.59
2022-09-06T09:12:49.551Z,100385.63
2022-09-06T09:15:17.902Z,100384.12
2022-09-06T09:17:44.864Z,100377.70
2022-09-06T09:20:11.692Z,100375.86
2022-09-06T09:22:39.198Z,100370.41
2022-09-06T09:25:06.694Z,100375.33
2022-09-06T09:27:33.563Z,100381.94
2022-09-06T09:32:50.090Z,100369.45
2022-09-06T09:35:23.563Z,100371.90
2022-09-06T09:38:04.993Z,100377.55
2022-09-06T09:40:40.192Z,100379.50
2022-09-06T09:43:26.200Z,100377.61
2022-09-06T09:46:11.735Z,100378.98
2022-09-06T09:48:38.959Z,100377.84
2022-09-06T09:51:27.477Z,100380.86
2022-09-06T09:53:57.554Z,100380.77
2022-09-06T09:56:34.833Z,100381.00
2022-09-06T09:59:01.553Z,100378.00
2022-09-06T10:01:31.894Z,100376.89
2022-09-06T10:07:11.248Z,100380.91
2022-09-06T10:10:05.295Z,100382.82
2022-09-06T10:12:36.251Z,100384.33
2022-09-06T10:15:07.029Z,100380.52
2022-09-06T10:17:53.160Z,100382.17
2022-09-06T10:20:20.573Z,100377.24
2022-09-06T10:23:02.283Z,100378.94
2022-09-06T10:25:49.206Z,100373.70
2022-09-06T10:28:36.878Z,100372.46
2022-09-06T10:31:22.504Z,100369.81
2022-09-06T10:34:18.571Z,100369.41
2022-09-06T10:37:17.088Z,100372.50
2022-09-06T10:40:07.318Z,100372.05
2022-09-06T10:42:47.995Z,100367.28
2022-09-06T10:45:39.482Z,100370.48
2022-09-06T10:48:14.861Z,100370.83
2022-09-06T10:51:08.647Z,100367.40
2022-09-06T10:53:44.494Z,100373.25
2022-09-06T10:56:12.386Z,100366.00
2022-09-06T11:02:03.215Z,100367.23
2022-09-06T11:07:28.534Z,100366.46
2022-09-06T11:10:02.662Z,100363.40
2022-09-06T11:12:48.278Z,100363.50
2022-09-06T11:15:15.477Z,100363.33
2022-09-06T11:18:03.611Z,100365.18
2022-09-06T11:20:41.333Z,100364.16
2022-09-06T11:23:23.491Z,100361.08
2022-09-06T11:26:18.437Z,100361.06
2022-09-06T11:28:47.998Z,100357.92
2022-09-06T11:34:23.381Z,100359.33
2022-09-06T11:36:57.186Z,100358.19
2022-09-06T11:42:47.754Z,100366.87
2022-09-06T11:45:22.484Z,100366.61
2022-09-06T11:47:52.852Z,100364.48
2022-09-06T11:50:24.364Z,100364.63
2022-09-06T11:53:06.549Z,100364.16
2022-09-06T11:55:37.488Z,100364.94
2022-09-06T11:58:39.631Z,100364.68
2022-09-06T12:01:12.486Z,100360.70
2022-09-06T12:04:05.134Z,100361.77
2022-09-06T12:06:40.949Z,100357.70
2022-09-06T12:09:42.943Z,100349.70
2022-09-06T12:12:13.459Z,100346.98
2022-09-06T12:14:46.206Z,100339.55
2022-09-06T12:17:13.075Z,100336.59
2022-09-06T12:19:55.290Z,100339.30
2022-09-06T12:22:28.865Z,100336.13
2022-09-06T12:24:55.675Z,100334.13
2022-09-06T12:27:53.093Z,100328.73
2022-09-06T12:30:42.637Z,100328.26
2022-09-06T12:33:31.842Z,100324.35
2022-09-06T12:36:24.390Z,100322.98
2022-09-06T12:39:14.929Z,100322.55
2022-09-06T12:41:44.212Z,100319.47
2022-09-06T12:44:11.082Z,100320.45
2022-09-06T12:46:39.996Z,100314.41
2022-09-06T12:49:08.690Z,100315.29
2022-09-06T12:51:39.289Z,100314.45
2022-09-06T12:54:18.235Z,100310.34
2022-09-06T12:56:45.072Z,100308.81
2022-09-06T12:59:16.997Z,100307.63
2022-09-06T13:01:55.084Z,100305.09
2022-09-06T13:04:40.424Z,100303.41
2022-09-06T13:07:09.648Z,100300.00
2022-09-06T13:09:36.456Z,100300.27
2022-09-06T13:12:06.600Z,100297.34
2022-09-06T13:14:33.399Z,100298.92
2022-09-06T13:17:00.262Z,100299.79
2022-09-06T13:19:37.884Z,100298.28
2022-09-06T13:22:07.570Z,100298.23
2022-09-06T13:24:34.344Z,100297.91
2022-09-06T13:27:01.254Z,100299.40
2022-09-06T13:29:31.847Z,100299.33
2022-09-06T13:31:59.859Z,100298.07
2022-09-06T13:34:28.165Z,100299.30
2022-09-06T13:37:05.612Z,100296.02
2022-09-06T13:39:33.915Z,100293.36
2022-09-06T13:42:05.850Z,100291.88
2022-09-06T13:44:33.770Z,100294.20
2022-09-06T13:47:00.601Z,100292.06
2022-09-06T13:49:28.332Z,100290.38
2022-09-06T13:51:58.275Z,100287.44
2022-09-06T13:54:25.149Z,100287.46
2022-09-06T13:56:52.018Z,100288.92
2022-09-06T13:59:19.015Z,100285.59
2022-09-06T14:01:47.016Z,100284.56
2022-09-06T14:04:15.823Z,100281.84
2022-09-06T14:06:42.800Z,100286.20
2022-09-06T14:09:09.999Z,100282.02
2022-09-06T14:11:36.978Z,100282.29
2022-09-06T14:14:04.051Z,100278.85
2022-09-06T14:16:31.627Z,100276.76
2022-09-06T14:18:58.458Z,100275.70
2022-09-06T14:21:25.228Z,100273.41
2022-09-06T14:23:52.650Z,100273.20
2022-09-06T14:26:21.041Z,100277.14
2022-09-06T14:28:48.031Z,100276.76
2022-09-06T14:31:16.649Z,100273.52
2022-09-06T14:33:43.530Z,100274.70
2022-09-06T14:36:12.002Z,100276.66
2022-09-06T14:38:40.077Z,100278.16
2022-09-06T14:41:07.587Z,100279.86
2022-09-06T14:43:34.921Z,100278.29
2022-09-06T14:46:12.856Z,100279.40
2022-09-06T14:48:42.265Z,100279.88
2022-09-06T14:51:22.064Z,100278.52
2022-09-06T14:53:50.351Z,100279.42
2022-09-06T14:56:17.059Z,100278.69
2022-09-06T14:58:43.920Z,100278.31
2022-09-06T15:01:15.478Z,100282.47
2022-09-06T15:03:43.521Z,100278.21
2022-09-06T15:06:10.333Z,100281.42
2022-09-06T15:08:37.946Z,100278.23
2022-09-06T15:11:08.231Z,100275.38
2022-09-06T15:13:37.105Z,100274.92
2022-09-06T15:16:07.796Z,100273.79
2022-09-06T15:18:35.143Z,100273.95
2022-09-06T15:21:09.768Z,100271.64
2022-09-06T15:23:36.773Z,100270.57
2022-09-06T15:26:03.784Z,100270.72
2022-09-06T15:28:30.482Z,100269.80
2022-09-06T15:30:57.277Z,100269.62
2022-09-06T15:33:24.082Z,100269.27
2022-09-06T15:35:54.697Z,100265.73
2022-09-06T15:38:21.395Z,100263.79
2022-09-06T15:40:48.134Z,100264.64
2022-09-06T15:43:14.884Z,100262.48
2022-09-06T15:45:49.394Z,100265.48
2022-09-06T15:48:17.086Z,100263.73
2022-09-06T15:50:51.259Z,100260.55
2022-09-06T15:53:19.500Z,100259.66
2022-09-06T15:55:58.248Z,100256.67
2022-09-06T15:58:26.680Z,100257.89
2022-09-06T16:01:29.138Z,100260.12
2022-09-06T16:04:03.609Z,100255.95
2022-09-06T16:06:39.611Z,100254.01
2022-09-06T16:11:54.458Z,100253.31
2022-09-06T16:14:21.692Z,100255.06
2022-09-06T16:16:48.433Z,100252.61
2022-09-06T16:19:15.127Z,100254.80
2022-09-06T16:21:42.639Z,100254.23
2022-09-06T16:24:11.028Z,100254.70
2022-09-06T16:26:39.511Z,100254.98
2022-09-06T16:29:07.136Z,100259.96
2022-09-06T16:31:37.758Z,100260.32
2022-09-06T16:34:07.900Z,100265.70
2022-09-06T16:36:34.699Z,100263.67
2022-09-06T16:39:01.377Z,100262.95
2022-09-06T16:41:31.854Z,100265.69
2022-09-06T16:43:58.850Z,100267.80
2022-09-06T16:46:26.108Z,100271.46
2022-09-06T16:48:54.953Z,100270.04
2022-09-06T16:51:23.019Z,100269.11
2022-09-06T16:53:49.743Z,100270.77
2022-09-06T16:56:17.920Z,100274.13
2022-09-06T16:58:48.579Z,100270.10
2022-09-06T17:01:15.793Z,100271.70
2022-09-06T17:03:42.570Z,100274.74
2022-09-06T17:06:09.500Z,100274.23
2022-09-06T17:08:36.526Z,100279.59
2022-09-06T17:11:08.680Z,100280.39
2022-09-06T17:13:35.557Z,100282.42
2022-09-06T17:16:22.377Z,100288.03
2022-09-06T17:18:50.017Z,100289.70
2022-09-06T17:21:16.769Z,100288.98
2022-09-06T17:23:44.624Z,100287.72
2022-09-06T17:26:11.310Z,100287.56
2022-09-06T17:28:38.387Z,100289.63
2022-09-06T17:31:05.793Z,100295.31
2022-09-06T17:33:33.093Z,100300.14
2022-09-06T17:36:11.818Z,100300.38
2022-09-06T17:38:39.464Z,100299.61
2022-09-06T17:41:06.585Z,100301.90
2022-09-06T17:43:35.782Z,100301.13
2022-09-06T17:46:03.829Z,100298.60
2022-09-06T17:48:30.728Z,100301.91
2022-09-06T17:50:58.343Z,100305.22
2022-09-06T17:53:25.073Z,100315.95
2022-09-06T17:55:52.335Z,100313.79
2022-09-06T17:58:19.983Z,100315.20
2022-09-06T18:00:46.740Z,100315.45
2022-09-06T18:03:13.517Z,100316.98
2022-09-06T18:05:40.307Z,100320.54
2022-09-06T18:08:07.871Z,100323.61
2022-09-06T18:10:37.896Z,100324.00
2022-09-06T18:13:05.857Z,100325.22
2022-09-06T18:15:32.877Z,100325.55
2022-09-06T18:17:59.657Z,100321.74
2022-09-06T18:20:26.603Z,100323.89
2022-09-06T18:22:53.341Z,100326.27
2022-09-06T18:25:20.082Z,100327.67
2022-09-06T18:27:47.383Z,100333.20
2022-09-06T18:30:14.967Z,100335.64
2022-09-06T18:32:42.013Z,100336.71
2022-09-06T18:35:08.901Z,100337.59
2022-09-06T18:37:36.652Z,100339.59
2022-09-06T18:40:04.832Z,100335.23
2022-09-06T18:42:31.780Z,100341.79
2022-09-06T18:44:58.558Z,100338.41
2022-09-06T18:47:25.294Z,100338.21
2022-09-06T18:49:52.161Z,100336.98
2022-09-06T18:52:20.465Z,100336.09
2022-09-06T18:54:49.152Z,100333.12
2022-09-06T18:57:17.256Z,100331.31
2022-09-06T18:59:44.588Z,100331.58
2022-09-06T19:02:11.647Z,100326.44
2022-09-06T19:04:38.492Z,100329.88
2022-09-06T19:07:05.234Z,100327.59
2022-09-06T19:09:32.070Z,100328.84
2022-09-06T19:11:58.762Z,100324.95
2022-09-06T19:14:25.783Z,100326.42
2022-09-06T19:16:54.237Z,100327.69
2022-09-06T19:19:21.886Z,100327.66
2022-09-06T19:21:48.665Z,100330.42
2022-09-06T19:24:16.052Z,100326.20
2022-09-06T19:26:43.978Z,100322.06
2022-09-06T19:29:15.825Z,100319.44
2022-09-06T19:31:42.947Z,100321.13
2022-09-06T19:34:09.853Z,100318.85
2022-09-06T19:36:36.588Z,100319.83
2022-09-06T19:39:07.117Z,100325.80
2022-09-06T19:41:36.191Z,100329.41
2022-09-06T19:44:05.737Z,100329.15
2022-09-06T19:46:32.982Z,100331.21
2022-09-06T19:49:00.579Z,100329.10
2022-09-06T19:51:27.532Z,100327.05
2022-09-06T19:53:55.147Z,100325.87
2022-09-06T19:56:23.725Z,100326.20
2022-09-06T19:58:55.780Z,100326.45
2022-09-06T20:01:23.025Z,100330.08
2022-09-06T20:03:50.099Z,100333.70
2022-09-06T20:06:16.885Z,100333.09
2022-09-06T20:08:43.596Z,100332.60
2022-09-06T20:11:11.078Z,100332.36
2022-09-06T20:13:37.930Z,100336.49
2022-09-06T20:16:05.105Z,100336.53
2022-09-06T20:18:31.912Z,100337.55
2022-09-06T20:21:01.467Z,100339.02
2022-09-06T20:23:29.140Z,100340.88
2022-09-06T20:26:01.920Z,100337.11
2022-09-06T20:28:28.888Z,100338.27
2022-09-06T20:31:00.632Z,100336.70
2022-09-06T20:33:27.392Z,100333.77
2022-09-06T20:35:58.220Z,100335.60
2022-09-06T20:38:25.377Z,100333.13
2022-09-06T20:41:06.465Z,100329.85
2022-09-06T20:43:36.434Z,100327.21
2022-09-06T20:46:04.784Z,100326.04
2022-09-06T20:48:34.914Z,100326.68
2022-09-06T20:51:03.542Z,100324.59
2022-09-06T20:53:31.588Z,100327.24
2022-09-06T20:55:59.774Z,100331.38
2022-09-06T20:58:26.899Z,100331.18
2022-09-06T21:00:54.034Z,100331.10
2022-09-06T21:03:21.084Z,100330.90
2022-09-06T21:05:47.843Z,100329.00
2022-09-06T21:08:14.751Z,100330.23
2022-09-06T21:10:41.702Z,100328.07
2022-09-06T21:13:09.011Z,100324.95
2022-09-06T21:15:36.574Z,100324.23
2022-09-06T21:18:04.640Z,100323.35
2022-09-06T21:20:31.466Z,100328.99
2022-09-06T21:22:58.130Z,100329.86
2022-09-06T21:25:24.875Z,100325.91
2022-09-06T21:27:55.536Z,100328.13
2022-09-06T21:30:22.612Z,100323.33
2022-09-06T21:32:49.436Z,100323.21
2022-09-06T21:35:16.117Z,100325.30
2022-09-06T21:37:42.847Z,100323.26
2022-09-06T21:40:09.844Z,100322.58
2022-09-06T21:42:36.689Z,100321.02
2022-09-06T21:45:03.655Z,100320.42
2022-09-06T21:47:31.422Z,100318.52
2022-09-06T21:49:58.239Z,100318.13
2022-09-06T21:52:25.051Z,100316.00
2022-09-06T21:54:51.835Z,100317.00
2022-09-06T21:57:19.774Z,100318.02
2022-09-06T21:59:46.507Z,100315.06
2022-09-06T22:02:14.382Z,100314.73
2022-09-06T22:04:41.121Z,100313.09
2022-09-06T22:07:07.862Z,100309.30
2022-09-06T22:09:35.628Z,100309.64
2022-09-06T22:12:02.576Z,100312.64
2022-09-06T22:14:29.327Z,100313.39
2022-09-06T22:16:56.036Z,100309.01
2022-09-06T22:19:34.867Z,100312.39
2022-09-06T22:22:01.673Z,100314.39
2022-09-06T22:24:28.377Z,100311.91
2022-09-06T22:26:55.132Z,100314.15
2022-09-06T22:29:22.716Z,100311.98
2022-09-06T22:31:49.545Z,100313.27
2022-09-06T22:34:16.330Z,100313.30
2022-09-06T22:36:43.136Z,100314.18
2022-09-06T22:39:09.911Z,100313.55
2022-09-06T22:41:36.600Z,100314.39
2022-09-06T22:44:03.861Z,100312.13
2022-09-06T22:46:31.053Z,100315.27
2022-09-06T22:48:58.390Z,100315.88
2022-09-06T22:51:25.137Z,100318.24
2022-09-06T22:53:54.577Z,100318.70
2022-09-06T22:56:21.373Z,100313.84
2022-09-06T22:58:48.086Z,100317.00
2022-09-06T23:01:15.532Z,100317.76
2022-09-06T23:03:42.792Z,100315.96
2022-09-06T23:06:09.790Z,100316.21
2022-09-06T23:08:37.238Z,100317.29
2022-09-06T23:11:11.776Z,100315.14
2022-09-06T23:13:38.654Z,100315.90
2022-09-06T23:16:10.139Z,100316.39
2022-09-06T23:18:36.926Z,100317.47
2022-09-06T23:21:14.674Z,100314.05
2022-09-06T23:23:41.792Z,100314.77
2022-09-06T23:26:19.598Z,100316.47
2022-09-06T23:28:46.395Z,100316.02
2022-09-06T23:31:13.804Z,100314.27
2022-09-06T23:33:41.688Z,100316.89
2022-09-06T23:36:10.063Z,100311.40
2022-09-06T23:38:37.621Z,100313.37
2022-09-06T23:41:04.475Z,100309.70
2022-09-06T23:43:31.173Z,100308.83
2022-09-06T23:45:58.529Z,100305.86
2022-09-06T23:48:25.514Z,100313.04
2022-09-06T23:50:52.273Z,100313.83
2022-09-06T23:53:19.124Z,100313.16
2022-09-06T23:55:45.777Z,100311.11
2022-09-06T23:58:12.521Z,100309.23
